sensor_id;sensor_type;location;lat;lon;timestamp;P1;durP1;ratioP1;P2;durP2;ratioP2
39410;SDS011;26579;43.238;23.124;2023-04-06T00:00:36;19.95;;;9.65;;
39410;SDS011;26579;43.238;23.124;2023-04-06T00:03:02;20.02;;;10.48;;
39410;SDS011;26579;43.238;23.124;2023-04-06T00:05:28;20.67;;;9.23;;
39410;SDS011;26579;43.238;23.124;2023-04-06T00:07:54;16.95;;;8.63;;
39410;SDS011;26579;43.238;23.124;2023-04-06T00:10:19;15.65;;;9.43;;
39410;SDS011;26579;43.238;23.124;2023-04-06T00:12:45;18.73;;;9.68;;
39410;SDS011;26579;43.238;23.124;2023-04-06T00:15:11;19.23;;;10.55;;
39410;SDS011;26579;43.238;23.124;2023-04-06T00:17:37;22.35;;;10.23;;
39410;SDS011;26579;43.238;23.124;2023-04-06T00:20:03;17.88;;;10.18;;
39410;SDS011;26579;43.238;23.124;2023-04-06T00:22:28;19.15;;;10.50;;
39410;SDS011;26579;43.238;23.124;2023-04-06T00:24:54;24.15;;;12.27;;
39410;SDS011;26579;43.238;23.124;2023-04-06T00:27:20;28.63;;;14.07;;
39410;SDS011;26579;43.238;23.124;2023-04-06T00:29:46;27.52;;;13.80;;
39410;SDS011;26579;43.238;23.124;2023-04-06T00:32:11;21.50;;;10.55;;
39410;SDS011;26579;43.238;23.124;2023-04-06T00:34:37;17.33;;;9.60;;
39410;SDS011;26579;43.238;23.124;2023-04-06T00:37:03;18.70;;;10.07;;
39410;SDS011;26579;43.238;23.124;2023-04-06T00:39:29;19.60;;;10.20;;
39410;SDS011;26579;43.238;23.124;2023-04-06T00:41:55;19.52;;;9.50;;
39410;SDS011;26579;43.238;23.124;2023-04-06T00:44:21;17.58;;;9.38;;
39410;SDS011;26579;43.238;23.124;2023-04-06T00:46:47;14.93;;;8.20;;
39410;SDS011;26579;43.238;23.124;2023-04-06T00:49:13;17.52;;;9.07;;
39410;SDS011;26579;43.238;23.124;2023-04-06T00:51:39;16.95;;;9.32;;
39410;SDS011;26579;43.238;23.124;2023-04-06T00:54:05;19.25;;;10.02;;
39410;SDS011;26579;43.238;23.124;2023-04-06T00:56:33;13.95;;;7.85;;
39410;SDS011;26579;43.238;23.124;2023-04-06T00:58:58;17.08;;;9.52;;
39410;SDS011;26579;43.238;23.124;2023-04-06T01:01:25;16.67;;;9.65;;
39410;SDS011;26579;43.238;23.124;2023-04-06T01:03:53;18.95;;;10.30;;
39410;SDS011;26579;43.238;23.124;2023-04-06T01:06:19;16.05;;;8.85;;
39410;SDS011;26579;43.238;23.124;2023-04-06T01:08:54;20.77;;;10.05;;
39410;SDS011;26579;43.238;23.124;2023-04-06T01:11:22;14.07;;;8.43;;
39410;SDS011;26579;43.238;23.124;2023-04-06T01:13:49;14.85;;;8.35;;
39410;SDS011;26579;43.238;23.124;2023-04-06T01:16:41;14.52;;;7.97;;
39410;SDS011;26579;43.238;23.124;2023-04-06T01:19:16;18.75;;;9.20;;
39410;SDS011;26579;43.238;23.124;2023-04-06T01:21:49;17.42;;;9.07;;
39410;SDS011;26579;43.238;23.124;2023-04-06T01:24:35;16.55;;;9.35;;
39410;SDS011;26579;43.238;23.124;2023-04-06T01:27:07;16.92;;;9.93;;
39410;SDS011;26579;43.238;23.124;2023-04-06T01:29:47;22.35;;;11.82;;
39410;SDS011;26579;43.238;23.124;2023-04-06T01:32:29;20.23;;;10.93;;
39410;SDS011;26579;43.238;23.124;2023-04-06T01:34:54;22.45;;;10.63;;
39410;SDS011;26579;43.238;23.124;2023-04-06T01:37:20;20.42;;;10.32;;
39410;SDS011;26579;43.238;23.124;2023-04-06T01:39:46;20.38;;;9.98;;
39410;SDS011;26579;43.238;23.124;2023-04-06T01:42:20;18.73;;;9.73;;
39410;SDS011;26579;43.238;23.124;2023-04-06T01:44:47;15.77;;;8.85;;
39410;SDS011;26579;43.238;23.124;2023-04-06T01:47:14;15.05;;;8.02;;
39410;SDS011;26579;43.238;23.124;2023-04-06T01:49:40;17.02;;;9.48;;
39410;SDS011;26579;43.238;23.124;2023-04-06T01:52:07;15.63;;;9.23;;
39410;SDS011;26579;43.238;23.124;2023-04-06T01:54:34;20.77;;;10.20;;
39410;SDS011;26579;43.238;23.124;2023-04-06T01:57:10;17.23;;;9.10;;
39410;SDS011;26579;43.238;23.124;2023-04-06T01:59:43;18.60;;;10.98;;
39410;SDS011;26579;43.238;23.124;2023-04-06T02:02:27;21.45;;;11.27;;
39410;SDS011;26579;43.238;23.124;2023-04-06T02:04:58;20.15;;;10.65;;
39410;SDS011;26579;43.238;23.124;2023-04-06T02:07:24;21.70;;;10.75;;
39410;SDS011;26579;43.238;23.124;2023-04-06T02:09:53;21.20;;;10.80;;
39410;SDS011;26579;43.238;23.124;2023-04-06T02:12:24;22.88;;;10.80;;
39410;SDS011;26579;43.238;23.124;2023-04-06T02:14:50;19.92;;;10.38;;
39410;SDS011;26579;43.238;23.124;2023-04-06T02:17:16;17.58;;;9.93;;
39410;SDS011;26579;43.238;23.124;2023-04-06T02:19:41;18.20;;;9.80;;
39410;SDS011;26579;43.238;23.124;2023-04-06T02:22:07;16.88;;;9.45;;
39410;SDS011;26579;43.238;23.124;2023-04-06T02:24:33;20.05;;;10.52;;
39410;SDS011;26579;43.238;23.124;2023-04-06T02:26:58;19.15;;;10.00;;
39410;SDS011;26579;43.238;23.124;2023-04-06T02:29:25;19.73;;;10.77;;
39410;SDS011;26579;43.238;23.124;2023-04-06T02:31:50;19.50;;;10.18;;
39410;SDS011;26579;43.238;23.124;2023-04-06T02:34:16;21.23;;;12.27;;
39410;SDS011;26579;43.238;23.124;2023-04-06T02:36:45;22.02;;;11.35;;
39410;SDS011;26579;43.238;23.124;2023-04-06T02:39:13;22.35;;;12.65;;
39410;SDS011;26579;43.238;23.124;2023-04-06T02:41:39;19.98;;;10.88;;
39410;SDS011;26579;43.238;23.124;2023-04-06T02:44:06;24.63;;;11.20;;
39410;SDS011;26579;43.238;23.124;2023-04-06T02:46:38;20.95;;;10.48;;
39410;SDS011;26579;43.238;23.124;2023-04-06T02:49:03;20.02;;;10.90;;
39410;SDS011;26579;43.238;23.124;2023-04-06T02:51:31;21.38;;;11.13;;
39410;SDS011;26579;43.238;23.124;2023-04-06T02:54:07;20.42;;;10.95;;
39410;SDS011;26579;43.238;23.124;2023-04-06T02:56:33;23.50;;;10.55;;
39410;SDS011;26579;43.238;23.124;2023-04-06T02:58:59;23.33;;;12.30;;
39410;SDS011;26579;43.238;23.124;2023-04-06T03:01:28;20.40;;;11.77;;
39410;SDS011;26579;43.238;23.124;2023-04-06T03:03:58;18.65;;;10.02;;
39410;SDS011;26579;43.238;23.124;2023-04-06T03:06:26;19.88;;;10.43;;
39410;SDS011;26579;43.238;23.124;2023-04-06T03:08:55;21.30;;;10.20;;
39410;SDS011;26579;43.238;23.124;2023-04-06T03:11:21;16.67;;;9.23;;
39410;SDS011;26579;43.238;23.124;2023-04-06T03:13:49;14.07;;;8.38;;
39410;SDS011;26579;43.238;23.124;2023-04-06T03:16:15;17.10;;;8.52;;
39410;SDS011;26579;43.238;23.124;2023-04-06T03:18:42;12.75;;;7.13;;
39410;SDS011;26579;43.238;23.124;2023-04-06T03:21:07;14.52;;;7.10;;
39410;SDS011;26579;43.238;23.124;2023-04-06T03:23:43;12.32;;;6.57;;
39410;SDS011;26579;43.238;23.124;2023-04-06T03:26:09;9.88;;;5.97;;
39410;SDS011;26579;43.238;23.124;2023-04-06T03:28:34;9.82;;;6.60;;
39410;SDS011;26579;43.238;23.124;2023-04-06T03:31:03;12.40;;;7.07;;
39410;SDS011;26579;43.238;23.124;2023-04-06T03:34:07;15.82;;;9.45;;
39410;SDS011;26579;43.238;23.124;2023-04-06T03:36:35;17.77;;;9.73;;
39410;SDS011;26579;43.238;23.124;2023-04-06T03:39:02;17.20;;;8.13;;
39410;SDS011;26579;43.238;23.124;2023-04-06T03:41:31;14.85;;;6.90;;
39410;SDS011;26579;43.238;23.124;2023-04-06T03:44:17;13.07;;;6.60;;
39410;SDS011;26579;43.238;23.124;2023-04-06T03:46:43;24.80;;;11.93;;
39410;SDS011;26579;43.238;23.124;2023-04-06T03:49:10;15.35;;;7.20;;
39410;SDS011;26579;43.238;23.124;2023-04-06T03:51:36;19.55;;;10.65;;
39410;SDS011;26579;43.238;23.124;2023-04-06T03:54:01;17.42;;;8.85;;
39410;SDS011;26579;43.238;23.124;2023-04-06T03:56:27;19.10;;;9.93;;
39410;SDS011;26579;43.238;23.124;2023-04-06T03:58:53;23.17;;;13.82;;
39410;SDS011;26579;43.238;23.124;2023-04-06T04:01:20;29.17;;;14.82;;
39410;SDS011;26579;43.238;23.124;2023-04-06T04:03:46;30.63;;;15.98;;
39410;SDS011;26579;43.238;23.124;2023-04-06T04:06:13;37.08;;;18.90;;
39410;SDS011;26579;43.238;23.124;2023-04-06T04:08:40;33.97;;;17.35;;
39410;SDS011;26579;43.238;23.124;2023-04-06T04:11:07;28.25;;;14.23;;
39410;SDS011;26579;43.238;23.124;2023-04-06T04:13:33;24.75;;;13.48;;
39410;SDS011;26579;43.238;23.124;2023-04-06T04:16:01;23.15;;;11.82;;
39410;SDS011;26579;43.238;23.124;2023-04-06T04:18:27;19.77;;;11.82;;
39410;SDS011;26579;43.238;23.124;2023-04-06T04:20:53;22.23;;;11.80;;
39410;SDS011;26579;43.238;23.124;2023-04-06T04:23:20;20.08;;;10.80;;
39410;SDS011;26579;43.238;23.124;2023-04-06T04:25:46;22.52;;;12.40;;
39410;SDS011;26579;43.238;23.124;2023-04-06T04:28:12;29.10;;;16.33;;
39410;SDS011;26579;43.238;23.124;2023-04-06T04:30:40;47.10;;;23.00;;
39410;SDS011;26579;43.238;23.124;2023-04-06T04:33:09;47.67;;;22.98;;
39410;SDS011;26579;43.238;23.124;2023-04-06T04:35:35;70.50;;;33.70;;
39410;SDS011;26579;43.238;23.124;2023-04-06T04:38:01;102.13;;;47.58;;
39410;SDS011;26579;43.238;23.124;2023-04-06T04:40:27;73.75;;;35.55;;
39410;SDS011;26579;43.238;23.124;2023-04-06T04:43:01;59.08;;;26.90;;
39410;SDS011;26579;43.238;23.124;2023-04-06T04:45:30;56.60;;;26.52;;
39410;SDS011;26579;43.238;23.124;2023-04-06T04:47:59;48.70;;;23.38;;
39410;SDS011;26579;43.238;23.124;2023-04-06T04:50:31;48.85;;;21.88;;
39410;SDS011;26579;43.238;23.124;2023-04-06T04:52:58;48.65;;;22.77;;
39410;SDS011;26579;43.238;23.124;2023-04-06T04:55:25;44.17;;;22.20;;
39410;SDS011;26579;43.238;23.124;2023-04-06T04:57:54;43.47;;;22.65;;
39410;SDS011;26579;43.238;23.124;2023-04-06T05:00:26;47.90;;;21.50;;
39410;SDS011;26579;43.238;23.124;2023-04-06T05:02:56;63.38;;;29.45;;
39410;SDS011;26579;43.238;23.124;2023-04-06T05:05:28;75.75;;;33.00;;
39410;SDS011;26579;43.238;23.124;2023-04-06T05:07:54;66.55;;;34.15;;
39410;SDS011;26579;43.238;23.124;2023-04-06T05:10:40;54.80;;;30.27;;
39410;SDS011;26579;43.238;23.124;2023-04-06T05:13:09;53.72;;;25.15;;
39410;SDS011;26579;43.238;23.124;2023-04-06T05:15:34;55.75;;;30.20;;
39410;SDS011;26579;43.238;23.124;2023-04-06T05:18:08;54.42;;;27.38;;
39410;SDS011;26579;43.238;23.124;2023-04-06T05:20:35;63.50;;;32.70;;
39410;SDS011;26579;43.238;23.124;2023-04-06T05:23:01;71.05;;;35.85;;
39410;SDS011;26579;43.238;23.124;2023-04-06T05:25:27;70.93;;;34.47;;
39410;SDS011;26579;43.238;23.124;2023-04-06T05:27:58;55.13;;;26.73;;
39410;SDS011;26579;43.238;23.124;2023-04-06T05:30:28;39.67;;;20.58;;
39410;SDS011;26579;43.238;23.124;2023-04-06T05:32:54;41.70;;;19.13;;
39410;SDS011;26579;43.238;23.124;2023-04-06T05:35:22;35.70;;;19.65;;
39410;SDS011;26579;43.238;23.124;2023-04-06T05:37:52;32.83;;;19.70;;
39410;SDS011;26579;43.238;23.124;2023-04-06T05:40:21;29.23;;;17.88;;
39410;SDS011;26579;43.238;23.124;2023-04-06T05:42:47;25.90;;;16.23;;
39410;SDS011;26579;43.238;23.124;2023-04-06T05:45:12;20.35;;;12.02;;
39410;SDS011;26579;43.238;23.124;2023-04-06T05:47:39;19.35;;;10.68;;
39410;SDS011;26579;43.238;23.124;2023-04-06T05:50:16;24.42;;;12.90;;
39410;SDS011;26579;43.238;23.124;2023-04-06T05:52:42;16.45;;;8.77;;
39410;SDS011;26579;43.238;23.124;2023-04-06T05:55:10;87.20;;;53.00;;
39410;SDS011;26579;43.238;23.124;2023-04-06T05:57:38;18.10;;;11.65;;
39410;SDS011;26579;43.238;23.124;2023-04-06T06:00:04;10.18;;;6.30;;
39410;SDS011;26579;43.238;23.124;2023-04-06T06:02:47;15.52;;;9.95;;
39410;SDS011;26579;43.238;23.124;2023-04-06T06:05:18;13.57;;;8.73;;
39410;SDS011;26579;43.238;23.124;2023-04-06T06:07:45;15.32;;;7.95;;
39410;SDS011;26579;43.238;23.124;2023-04-06T06:10:10;12.07;;;7.15;;
39410;SDS011;26579;43.238;23.124;2023-04-06T06:12:37;13.38;;;6.60;;
39410;SDS011;26579;43.238;23.124;2023-04-06T06:15:02;10.50;;;6.35;;
39410;SDS011;26579;43.238;23.124;2023-04-06T06:17:36;10.30;;;5.97;;
39410;SDS011;26579;43.238;23.124;2023-04-06T06:20:01;9.05;;;5.50;;
39410;SDS011;26579;43.238;23.124;2023-04-06T06:22:28;6.82;;;4.53;;
39410;SDS011;26579;43.238;23.124;2023-04-06T06:24:54;10.90;;;5.57;;
39410;SDS011;26579;43.238;23.124;2023-04-06T06:27:20;7.30;;;5.05;;
39410;SDS011;26579;43.238;23.124;2023-04-06T06:29:48;10.38;;;5.60;;
39410;SDS011;26579;43.238;23.124;2023-04-06T06:32:15;9.02;;;5.85;;
39410;SDS011;26579;43.238;23.124;2023-04-06T06:34:41;11.70;;;6.97;;
39410;SDS011;26579;43.238;23.124;2023-04-06T06:37:08;9.13;;;5.57;;
39410;SDS011;26579;43.238;23.124;2023-04-06T06:39:36;9.75;;;6.28;;
39410;SDS011;26579;43.238;23.124;2023-04-06T06:42:02;12.95;;;4.65;;
39410;SDS011;26579;43.238;23.124;2023-04-06T06:44:46;8.48;;;6.28;;
39410;SDS011;26579;43.238;23.124;2023-04-06T06:47:12;9.75;;;6.00;;
39410;SDS011;26579;43.238;23.124;2023-04-06T06:49:38;10.98;;;7.53;;
39410;SDS011;26579;43.238;23.124;2023-04-06T06:52:03;10.02;;;5.57;;
39410;SDS011;26579;43.238;23.124;2023-04-06T06:54:29;21.27;;;10.13;;
39410;SDS011;26579;43.238;23.124;2023-04-06T06:56:55;15.57;;;9.85;;
39410;SDS011;26579;43.238;23.124;2023-04-06T06:59:23;11.27;;;6.72;;
39410;SDS011;26579;43.238;23.124;2023-04-06T07:01:52;14.15;;;7.10;;
39410;SDS011;26579;43.238;23.124;2023-04-06T07:04:18;13.73;;;7.00;;
39410;SDS011;26579;43.238;23.124;2023-04-06T07:06:44;10.50;;;7.03;;
39410;SDS011;26579;43.238;23.124;2023-04-06T07:09:12;15.10;;;11.52;;
39410;SDS011;26579;43.238;23.124;2023-04-06T07:11:39;40.92;;;17.00;;
39410;SDS011;26579;43.238;23.124;2023-04-06T07:14:04;13.82;;;7.35;;
39410;SDS011;26579;43.238;23.124;2023-04-06T07:16:30;15.32;;;10.00;;
39410;SDS011;26579;43.238;23.124;2023-04-06T07:18:56;15.02;;;9.07;;
39410;SDS011;26579;43.238;23.124;2023-04-06T07:21:22;10.48;;;6.93;;
39410;SDS011;26579;43.238;23.124;2023-04-06T07:23:47;11.75;;;7.70;;
39410;SDS011;26579;43.238;23.124;2023-04-06T07:26:13;12.18;;;9.18;;
39410;SDS011;26579;43.238;23.124;2023-04-06T07:28:39;9.60;;;7.00;;
39410;SDS011;26579;43.238;23.124;2023-04-06T07:31:05;12.25;;;8.52;;
39410;SDS011;26579;43.238;23.124;2023-04-06T07:33:31;10.20;;;6.82;;
39410;SDS011;26579;43.238;23.124;2023-04-06T07:35:57;15.70;;;8.93;;
39410;SDS011;26579;43.238;23.124;2023-04-06T07:38:23;26.80;;;22.95;;
39410;SDS011;26579;43.238;23.124;2023-04-06T07:40:50;17.48;;;13.60;;
39410;SDS011;26579;43.238;23.124;2023-04-06T07:43:16;8.95;;;6.30;;
39410;SDS011;26579;43.238;23.124;2023-04-06T07:45:42;8.38;;;6.78;;
39410;SDS011;26579;43.238;23.124;2023-04-06T07:48:08;7.25;;;4.95;;
39410;SDS011;26579;43.238;23.124;2023-04-06T07:50:34;14.35;;;7.28;;
39410;SDS011;26579;43.238;23.124;2023-04-06T07:53:00;8.75;;;5.72;;
39410;SDS011;26579;43.238;23.124;2023-04-06T07:55:26;7.35;;;4.50;;
39410;SDS011;26579;43.238;23.124;2023-04-06T07:57:52;10.80;;;6.55;;
39410;SDS011;26579;43.238;23.124;2023-04-06T08:00:18;9.98;;;6.03;;
39410;SDS011;26579;43.238;23.124;2023-04-06T08:02:44;9.40;;;6.55;;
39410;SDS011;26579;43.238;23.124;2023-04-06T08:05:09;11.02;;;7.05;;
39410;SDS011;26579;43.238;23.124;2023-04-06T08:07:35;9.38;;;6.93;;
39410;SDS011;26579;43.238;23.124;2023-04-06T08:10:01;10.73;;;7.35;;
39410;SDS011;26579;43.238;23.124;2023-04-06T08:12:27;9.82;;;6.18;;
39410;SDS011;26579;43.238;23.124;2023-04-06T08:14:52;10.40;;;6.25;;
39410;SDS011;26579;43.238;23.124;2023-04-06T08:17:18;10.77;;;6.93;;
39410;SDS011;26579;43.238;23.124;2023-04-06T08:19:44;10.30;;;6.90;;
39410;SDS011;26579;43.238;23.124;2023-04-06T08:22:10;18.45;;;10.40;;
39410;SDS011;26579;43.238;23.124;2023-04-06T08:24:36;7.60;;;5.78;;
39410;SDS011;26579;43.238;23.124;2023-04-06T08:27:02;6.32;;;4.28;;
39410;SDS011;26579;43.238;23.124;2023-04-06T08:29:28;7.90;;;5.45;;
39410;SDS011;26579;43.238;23.124;2023-04-06T08:31:53;14.18;;;6.30;;
39410;SDS011;26579;43.238;23.124;2023-04-06T08:34:20;13.77;;;7.95;;
39410;SDS011;26579;43.238;23.124;2023-04-06T08:36:46;7.57;;;5.63;;
39410;SDS011;26579;43.238;23.124;2023-04-06T08:39:12;9.00;;;5.88;;
39410;SDS011;26579;43.238;23.124;2023-04-06T08:41:38;14.60;;;9.05;;
39410;SDS011;26579;43.238;23.124;2023-04-06T08:44:06;9.45;;;6.15;;
39410;SDS011;26579;43.238;23.124;2023-04-06T08:46:32;9.45;;;6.03;;
39410;SDS011;26579;43.238;23.124;2023-04-06T08:49:02;13.18;;;7.88;;
39410;SDS011;26579;43.238;23.124;2023-04-06T08:51:29;10.50;;;6.72;;
39410;SDS011;26579;43.238;23.124;2023-04-06T08:53:56;7.55;;;5.38;;
39410;SDS011;26579;43.238;23.124;2023-04-06T08:56:26;7.93;;;4.82;;
39410;SDS011;26579;43.238;23.124;2023-04-06T08:58:53;10.90;;;5.78;;
39410;SDS011;26579;43.238;23.124;2023-04-06T09:01:20;15.02;;;8.45;;
39410;SDS011;26579;43.238;23.124;2023-04-06T09:03:48;15.68;;;8.98;;
39410;SDS011;26579;43.238;23.124;2023-04-06T09:06:16;15.38;;;8.93;;
39410;SDS011;26579;43.238;23.124;2023-04-06T09:08:42;22.27;;;16.15;;
39410;SDS011;26579;43.238;23.124;2023-04-06T09:11:08;14.85;;;9.38;;
39410;SDS011;26579;43.238;23.124;2023-04-06T09:13:47;16.70;;;9.93;;
39410;SDS011;26579;43.238;23.124;2023-04-06T09:16:14;12.98;;;7.15;;
39410;SDS011;26579;43.238;23.124;2023-04-06T09:18:41;9.40;;;5.65;;
39410;SDS011;26579;43.238;23.124;2023-04-06T09:21:07;9.90;;;5.90;;
39410;SDS011;26579;43.238;23.124;2023-04-06T09:23:33;12.90;;;7.93;;
39410;SDS011;26579;43.238;23.124;2023-04-06T09:26:12;10.07;;;6.18;;
39410;SDS011;26579;43.238;23.124;2023-04-06T09:31:16;11.20;;;6.20;;
39410;SDS011;26579;43.238;23.124;2023-04-06T09:33:46;10.80;;;6.60;;
39410;SDS011;26579;43.238;23.124;2023-04-06T09:36:12;8.10;;;5.53;;
39410;SDS011;26579;43.238;23.124;2023-04-06T09:38:53;11.18;;;9.18;;
39410;SDS011;26579;43.238;23.124;2023-04-06T09:41:24;10.75;;;6.90;;
39410;SDS011;26579;43.238;23.124;2023-04-06T09:43:52;11.55;;;7.07;;
39410;SDS011;26579;43.238;23.124;2023-04-06T09:46:40;11.75;;;5.82;;
39410;SDS011;26579;43.238;23.124;2023-04-06T09:49:08;14.73;;;6.68;;
39410;SDS011;26579;43.238;23.124;2023-04-06T09:51:38;15.65;;;8.52;;
39410;SDS011;26579;43.238;23.124;2023-04-06T09:54:10;11.18;;;6.03;;
39410;SDS011;26579;43.238;23.124;2023-04-06T09:59:25;39.00;;;23.55;;
39410;SDS011;26579;43.238;23.124;2023-04-06T10:02:00;20.48;;;12.68;;
39410;SDS011;26579;43.238;23.124;2023-04-06T10:04:42;8.52;;;5.75;;
39410;SDS011;26579;43.238;23.124;2023-04-06T10:07:13;21.27;;;9.75;;
39410;SDS011;26579;43.238;23.124;2023-04-06T10:09:39;17.70;;;8.30;;
39410;SDS011;26579;43.238;23.124;2023-04-06T10:12:05;11.40;;;6.53;;
39410;SDS011;26579;43.238;23.124;2023-04-06T10:14:34;12.60;;;7.55;;
39410;SDS011;26579;43.238;23.124;2023-04-06T10:17:01;14.02;;;8.00;;
39410;SDS011;26579;43.238;23.124;2023-04-06T10:19:28;14.45;;;10.20;;
39410;SDS011;26579;43.238;23.124;2023-04-06T10:21:59;9.13;;;6.13;;
39410;SDS011;26579;43.238;23.124;2023-04-06T10:24:28;10.10;;;5.63;;
39410;SDS011;26579;43.238;23.124;2023-04-06T10:27:12;9.43;;;5.80;;
39410;SDS011;26579;43.238;23.124;2023-04-06T10:29:44;13.02;;;9.02;;
39410;SDS011;26579;43.238;23.124;2023-04-06T10:32:11;10.85;;;6.68;;
39410;SDS011;26579;43.238;23.124;2023-04-06T10:34:37;14.93;;;9.75;;
39410;SDS011;26579;43.238;23.124;2023-04-06T10:37:15;11.07;;;7.47;;
39410;SDS011;26579;43.238;23.124;2023-04-06T10:39:45;19.98;;;12.52;;
39410;SDS011;26579;43.238;23.124;2023-04-06T10:42:23;15.45;;;10.15;;
39410;SDS011;26579;43.238;23.124;2023-04-06T10:45:18;8.82;;;6.68;;
39410;SDS011;26579;43.238;23.124;2023-04-06T10:47:45;8.35;;;6.30;;
39410;SDS011;26579;43.238;23.124;2023-04-06T10:50:11;27.55;;;17.65;;
39410;SDS011;26579;43.238;23.124;2023-04-06T10:52:40;21.48;;;14.55;;
39410;SDS011;26579;43.238;23.124;2023-04-06T10:55:07;12.50;;;7.55;;
39410;SDS011;26579;43.238;23.124;2023-04-06T10:57:34;14.35;;;8.95;;
39410;SDS011;26579;43.238;23.124;2023-04-06T10:59:59;12.38;;;8.32;;
39410;SDS011;26579;43.238;23.124;2023-04-06T11:02:25;12.52;;;8.43;;
39410;SDS011;26579;43.238;23.124;2023-04-06T11:04:55;15.65;;;9.57;;
39410;SDS011;26579;43.238;23.124;2023-04-06T11:07:25;11.38;;;8.07;;
39410;SDS011;26579;43.238;23.124;2023-04-06T11:09:51;8.00;;;6.10;;
39410;SDS011;26579;43.238;23.124;2023-04-06T11:12:22;10.85;;;6.65;;
39410;SDS011;26579;43.238;23.124;2023-04-06T11:14:53;7.80;;;5.40;;
39410;SDS011;26579;43.238;23.124;2023-04-06T11:17:25;7.10;;;5.18;;
39410;SDS011;26579;43.238;23.124;2023-04-06T11:19:51;7.60;;;4.90;;
39410;SDS011;26579;43.238;23.124;2023-04-06T11:22:17;7.40;;;5.40;;
39410;SDS011;26579;43.238;23.124;2023-04-06T11:24:43;9.13;;;5.57;;
39410;SDS011;26579;43.238;23.124;2023-04-06T11:27:08;10.52;;;7.22;;
39410;SDS011;26579;43.238;23.124;2023-04-06T11:29:34;10.55;;;6.90;;
39410;SDS011;26579;43.238;23.124;2023-04-06T11:32:01;9.32;;;6.57;;
39410;SDS011;26579;43.238;23.124;2023-04-06T11:34:30;7.88;;;5.47;;
39410;SDS011;26579;43.238;23.124;2023-04-06T11:37:03;10.32;;;6.47;;
39410;SDS011;26579;43.238;23.124;2023-04-06T11:39:37;8.40;;;5.88;;
39410;SDS011;26579;43.238;23.124;2023-04-06T11:42:04;11.07;;;6.80;;
39410;SDS011;26579;43.238;23.124;2023-04-06T11:44:33;7.68;;;6.13;;
39410;SDS011;26579;43.238;23.124;2023-04-06T11:47:04;15.50;;;7.18;;
39410;SDS011;26579;43.238;23.124;2023-04-06T11:49:31;10.77;;;6.95;;
39410;SDS011;26579;43.238;23.124;2023-04-06T11:51:58;14.75;;;9.27;;
39410;SDS011;26579;43.238;23.124;2023-04-06T11:57:01;11.98;;;7.60;;
39410;SDS011;26579;43.238;23.124;2023-04-06T11:59:28;14.32;;;8.95;;
39410;SDS011;26579;43.238;23.124;2023-04-06T12:01:53;21.80;;;12.43;;
39410;SDS011;26579;43.238;23.124;2023-04-06T12:04:19;9.40;;;5.68;;
39410;SDS011;26579;43.238;23.124;2023-04-06T12:06:45;15.63;;;9.88;;
39410;SDS011;26579;43.238;23.124;2023-04-06T12:09:11;12.10;;;7.18;;
39410;SDS011;26579;43.238;23.124;2023-04-06T12:11:37;7.78;;;5.20;;
39410;SDS011;26579;43.238;23.124;2023-04-06T12:14:04;10.13;;;6.60;;
39410;SDS011;26579;43.238;23.124;2023-04-06T12:16:33;24.85;;;10.68;;
39410;SDS011;26579;43.238;23.124;2023-04-06T12:18:59;30.38;;;15.48;;
39410;SDS011;26579;43.238;23.124;2023-04-06T12:21:29;20.60;;;12.13;;
39410;SDS011;26579;43.238;23.124;2023-04-06T12:23:56;13.23;;;8.98;;
39410;SDS011;26579;43.238;23.124;2023-04-06T12:26:22;16.10;;;10.20;;
39410;SDS011;26579;43.238;23.124;2023-04-06T12:28:48;16.45;;;9.32;;
39410;SDS011;26579;43.238;23.124;2023-04-06T12:31:17;24.58;;;13.35;;
39410;SDS011;26579;43.238;23.124;2023-04-06T12:33:46;29.92;;;16.33;;
39410;SDS011;26579;43.238;23.124;2023-04-06T12:36:12;16.95;;;11.63;;
39410;SDS011;26579;43.238;23.124;2023-04-06T12:38:39;17.92;;;10.05;;
39410;SDS011;26579;43.238;23.124;2023-04-06T12:41:05;15.57;;;9.60;;
39410;SDS011;26579;43.238;23.124;2023-04-06T12:43:31;15.20;;;11.40;;
39410;SDS011;26579;43.238;23.124;2023-04-06T12:45:56;17.70;;;9.18;;
39410;SDS011;26579;43.238;23.124;2023-04-06T12:48:22;33.05;;;17.75;;
39410;SDS011;26579;43.238;23.124;2023-04-06T12:50:57;37.47;;;20.77;;
39410;SDS011;26579;43.238;23.124;2023-04-06T12:53:24;23.27;;;15.23;;
39410;SDS011;26579;43.238;23.124;2023-04-06T12:55:50;16.40;;;10.88;;
39410;SDS011;26579;43.238;23.124;2023-04-06T12:58:16;12.52;;;8.32;;
39410;SDS011;26579;43.238;23.124;2023-04-06T13:00:42;14.93;;;9.60;;
39410;SDS011;26579;43.238;23.124;2023-04-06T13:03:08;10.52;;;6.60;;
39410;SDS011;26579;43.238;23.124;2023-04-06T13:05:33;9.90;;;7.28;;
39410;SDS011;26579;43.238;23.124;2023-04-06T13:07:59;12.52;;;8.77;;
39410;SDS011;26579;43.238;23.124;2023-04-06T13:10:25;10.35;;;8.05;;
39410;SDS011;26579;43.238;23.124;2023-04-06T13:12:51;10.40;;;7.22;;
39410;SDS011;26579;43.238;23.124;2023-04-06T13:15:17;17.85;;;10.32;;
39410;SDS011;26579;43.238;23.124;2023-04-06T13:17:42;16.52;;;10.40;;
39410;SDS011;26579;43.238;23.124;2023-04-06T13:20:08;20.65;;;11.57;;
39410;SDS011;26579;43.238;23.124;2023-04-06T13:22:34;15.48;;;11.23;;
39410;SDS011;26579;43.238;23.124;2023-04-06T13:25:00;20.60;;;12.70;;
39410;SDS011;26579;43.238;23.124;2023-04-06T13:27:26;23.58;;;14.30;;
39410;SDS011;26579;43.238;23.124;2023-04-06T13:29:52;21.55;;;12.98;;
39410;SDS011;26579;43.238;23.124;2023-04-06T13:32:17;21.67;;;12.50;;
39410;SDS011;26579;43.238;23.124;2023-04-06T13:34:43;15.65;;;10.95;;
39410;SDS011;26579;43.238;23.124;2023-04-06T13:37:09;17.42;;;12.30;;
39410;SDS011;26579;43.238;23.124;2023-04-06T13:39:35;16.35;;;11.40;;
39410;SDS011;26579;43.238;23.124;2023-04-06T13:42:00;18.55;;;10.60;;
39410;SDS011;26579;43.238;23.124;2023-04-06T13:44:27;25.70;;;16.75;;
39410;SDS011;26579;43.238;23.124;2023-04-06T13:46:53;25.52;;;15.68;;
39410;SDS011;26579;43.238;23.124;2023-04-06T13:49:19;16.85;;;10.82;;
39410;SDS011;26579;43.238;23.124;2023-04-06T13:51:44;14.05;;;10.32;;
39410;SDS011;26579;43.238;23.124;2023-04-06T13:54:10;17.52;;;11.73;;
39410;SDS011;26579;43.238;23.124;2023-04-06T13:56:36;14.48;;;11.18;;
39410;SDS011;26579;43.238;23.124;2023-04-06T13:59:02;14.88;;;10.93;;
39410;SDS011;26579;43.238;23.124;2023-04-06T14:01:28;16.90;;;11.20;;
39410;SDS011;26579;43.238;23.124;2023-04-06T14:03:54;16.80;;;9.93;;
39410;SDS011;26579;43.238;23.124;2023-04-06T14:06:20;19.25;;;10.27;;
39410;SDS011;26579;43.238;23.124;2023-04-06T14:08:45;20.58;;;11.55;;
39410;SDS011;26579;43.238;23.124;2023-04-06T14:11:11;19.50;;;13.13;;
39410;SDS011;26579;43.238;23.124;2023-04-06T14:13:38;19.60;;;12.90;;
39410;SDS011;26579;43.238;23.124;2023-04-06T14:16:04;19.08;;;12.02;;
39410;SDS011;26579;43.238;23.124;2023-04-06T14:18:30;17.15;;;12.20;;
39410;SDS011;26579;43.238;23.124;2023-04-06T14:20:56;18.77;;;11.80;;
39410;SDS011;26579;43.238;23.124;2023-04-06T14:23:23;19.52;;;12.77;;
39410;SDS011;26579;43.238;23.124;2023-04-06T14:25:49;18.23;;;12.40;;
39410;SDS011;26579;43.238;23.124;2023-04-06T14:28:14;18.92;;;11.57;;
39410;SDS011;26579;43.238;23.124;2023-04-06T14:30:40;20.70;;;12.07;;